createdAt,value
2022-12-29T00:02:01.266Z,10.38
2022-12-29T00:05:08.153Z,10.51
2022-12-29T00:08:14.448Z,10.62
2022-12-29T00:11:18.921Z,10.68
2022-12-29T00:14:40.070Z,10.75
2022-12-29T00:17:45.196Z,10.78
2022-12-29T00:21:09.161Z,10.82
2022-12-29T00:24:33.175Z,10.82
2022-12-29T00:27:53.293Z,10.88
2022-12-29T00:31:18.210Z,10.94
2022-12-29T00:34:38.426Z,10.97
2022-12-29T00:38:02.039Z,11.08
2022-12-29T00:41:23.818Z,11.12
2022-12-29T00:44:26.537Z,11.20
2022-12-29T00:47:29.228Z,11.24
2022-12-29T00:50:31.875Z,11.31
2022-12-29T00:53:34.549Z,11.38
2022-12-29T00:56:38.611Z,11.43
2022-12-29T00:59:44.667Z,11.47
2022-12-29T01:02:47.779Z,11.51
2022-12-29T01:05:50.564Z,11.54
2022-12-29T01:09:09.900Z,11.54
2022-12-29T01:12:14.252Z,11.53
2022-12-29T01:15:19.745Z,11.54
2022-12-29T01:18:23.922Z,11.58
2022-12-29T01:21:26.680Z,11.65
2022-12-29T01:24:30.048Z,11.61
2022-12-29T01:27:34.264Z,11.58
2022-12-29T01:30:39.726Z,11.55
2022-12-29T01:33:43.337Z,11.53
2022-12-29T01:36:51.261Z,11.50
2022-12-29T01:39:55.877Z,11.45
2022-12-29T01:42:59.922Z,11.43
2022-12-29T01:46:14.033Z,11.37
2022-12-29T01:49:22.852Z,11.36
2022-12-29T01:52:29.097Z,11.34
2022-12-29T01:55:35.294Z,11.31
2022-12-29T01:58:43.817Z,11.27
2022-12-29T02:01:46.810Z,11.26
2022-12-29T02:04:49.923Z,11.15
2022-12-29T02:07:54.147Z,11.26
2022-12-29T02:10:58.572Z,11.23
2022-12-29T02:14:03.846Z,11.23
2022-12-29T02:17:16.047Z,11.24
2022-12-29T02:20:52.961Z,11.24
2022-12-29T02:24:23.583Z,11.29
2022-12-29T02:27:42.241Z,11.19
2022-12-29T02:30:53.505Z,11.28
2022-12-29T02:34:09.164Z,11.20
2022-12-29T02:37:33.549Z,11.21
2022-12-29T02:40:43.619Z,11.21
2022-12-29T02:43:52.847Z,11.21
2022-12-29T02:47:03.765Z,11.22
2022-12-29T02:50:14.371Z,11.21
2022-12-29T02:53:39.584Z,11.27
2022-12-29T02:56:41.589Z,11.26
2022-12-29T02:59:45.626Z,11.31
2022-12-29T03:03:10.099Z,11.29
2022-12-29T03:06:27.805Z,11.27
2022-12-29T03:09:43.792Z,11.26
2022-12-29T03:13:09.627Z,11.28
2022-12-29T03:16:22.053Z,11.31
2022-12-29T03:19:31.426Z,11.34
2022-12-29T03:22:41.526Z,11.39
2022-12-29T03:25:50.978Z,11.37
2022-12-29T03:28:55.522Z,11.40
2022-12-29T03:32:02.049Z,11.39
2022-12-29T03:35:09.420Z,11.39
2022-12-29T03:38:16.861Z,11.38
2022-12-29T03:41:25.105Z,11.37
2022-12-29T03:44:34.562Z,11.43
2022-12-29T03:47:40.288Z,11.42
2022-12-29T03:50:51.782Z,11.45
2022-12-29T03:53:55.254Z,11.46
2022-12-29T03:56:58.161Z,11.49
2022-12-29T04:00:00.881Z,11.46
2022-12-29T04:03:06.484Z,11.48
2022-12-29T04:06:10.580Z,11.47
2022-12-29T04:09:13.338Z,11.53
2022-12-29T04:12:25.144Z,11.49
2022-12-29T04:15:28.906Z,11.52
2022-12-29T04:18:31.736Z,11.53
2022-12-29T04:21:35.800Z,11.56
2022-12-29T04:24:44.720Z,11.52
2022-12-29T04:27:53.312Z,11.48
2022-12-29T04:30:56.441Z,11.46
2022-12-29T04:34:01.106Z,11.46
2022-12-29T04:37:10.694Z,11.47
2022-12-29T04:40:14.008Z,11.55
2022-12-29T04:43:31.008Z,11.61
2022-12-29T04:46:33.781Z,11.65
2022-12-29T04:49:36.696Z,11.66
2022-12-29T04:52:40.769Z,11.50
2022-12-29T04:55:46.934Z,11.69
2022-12-29T04:58:49.634Z,11.69
2022-12-29T05:01:52.345Z,11.70
2022-12-29T05:04:56.432Z,11.73
2022-12-29T05:08:00.439Z,11.72
2022-12-29T05:11:03.872Z,11.75
2022-12-29T05:14:08.716Z,11.74
2022-12-29T05:17:11.428Z,11.77
2022-12-29T05:20:14.168Z,11.75
2022-12-29T05:23:18.637Z,11.81
2022-12-29T05:26:21.439Z,11.75
2022-12-29T05:29:24.132Z,11.74
2022-12-29T05:32:33.035Z,11.76
2022-12-29T05:35:35.926Z,11.66
2022-12-29T05:38:39.946Z,11.78
2022-12-29T05:41:50.102Z,11.76
2022-12-29T05:44:54.774Z,11.77
2022-12-29T05:48:04.992Z,11.78
2022-12-29T05:51:07.741Z,11.77
2022-12-29T05:54:11.855Z,11.77
2022-12-29T05:57:14.505Z,11.76
2022-12-29T06:00:18.229Z,11.75
2022-12-29T06:03:23.333Z,11.74
2022-12-29T06:06:26.197Z,11.72
2022-12-29T06:09:30.408Z,11.69
2022-12-29T06:12:33.131Z,11.71
2022-12-29T06:15:35.926Z,11.73
2022-12-29T06:18:38.652Z,11.63
2022-12-29T06:21:41.391Z,11.60
2022-12-29T06:24:45.374Z,11.64
2022-12-29T06:27:48.106Z,11.66
2022-12-29T06:30:50.789Z,11.68
2022-12-29T06:33:53.742Z,11.73
2022-12-29T06:37:01.072Z,11.73
2022-12-29T06:40:12.737Z,11.74
2022-12-29T06:43:15.634Z,11.80
2022-12-29T06:46:18.351Z,11.81
2022-12-29T06:49:23.310Z,11.78
2022-12-29T06:52:26.103Z,11.79
2022-12-29T06:55:30.166Z,11.88
2022-12-29T06:58:33.203Z,11.84
2022-12-29T07:01:38.178Z,11.83
2022-12-29T07:04:41.184Z,11.83
2022-12-29T07:07:43.974Z,11.86
2022-12-29T07:10:49.494Z,11.83
2022-12-29T07:13:52.934Z,11.85
2022-12-29T07:16:58.088Z,11.84
2022-12-29T07:20:00.859Z,11.83
2022-12-29T07:23:04.275Z,11.81
2022-12-29T07:26:10.327Z,11.79
2022-12-29T07:29:13.079Z,11.79
2022-12-29T07:32:15.845Z,11.87
2022-12-29T07:35:18.665Z,11.90
2022-12-29T07:38:21.335Z,11.90
2022-12-29T07:41:25.537Z,11.93
2022-12-29T07:44:28.543Z,12.04
2022-12-29T07:47:31.292Z,12.02
2022-12-29T07:50:34.086Z,12.03
2022-12-29T07:53:37.145Z,12.04
2022-12-29T07:56:41.508Z,12.09
2022-12-29T07:59:44.340Z,12.16
2022-12-29T08:02:47.150Z,12.18
2022-12-29T08:05:50.601Z,12.21
2022-12-29T08:08:53.327Z,12.21
2022-12-29T08:11:57.621Z,12.23
2022-12-29T08:15:01.655Z,12.29
2022-12-29T08:18:07.454Z,12.29
2022-12-29T08:21:10.206Z,12.36
2022-12-29T08:24:13.274Z,12.42
2022-12-29T08:27:20.710Z,12.48
2022-12-29T08:30:24.384Z,12.57
2022-12-29T08:33:27.409Z,12.67
2022-12-29T08:36:30.090Z,12.74
2022-12-29T08:39:32.833Z,12.74
2022-12-29T08:42:37.388Z,12.63
2022-12-29T08:45:40.072Z,12.87
2022-12-29T08:48:42.857Z,12.88
2022-12-29T08:51:45.558Z,12.97
2022-12-29T08:54:48.383Z,13.02
2022-12-29T08:57:53.102Z,13.07
2022-12-29T09:00:57.574Z,13.09
2022-12-29T09:04:17.443Z,13.12
2022-12-29T09:07:21.021Z,13.17
2022-12-29T09:10:25.177Z,13.21
2022-12-29T09:13:32.549Z,13.22
2022-12-29T09:16:36.385Z,13.23
2022-12-29T09:19:39.268Z,13.22
2022-12-29T09:22:42.625Z,13.22
2022-12-29T09:25:45.601Z,13.15
2022-12-29T09:28:49.796Z,13.15
2022-12-29T09:31:52.546Z,13.14
2022-12-29T09:34:55.448Z,13.10
2022-12-29T09:37:58.183Z,13.08
2022-12-29T09:41:07.447Z,13.15
2022-12-29T09:44:19.344Z,13.27
2022-12-29T09:47:23.137Z,13.28
2022-12-29T09:50:32.277Z,13.29
2022-12-29T09:53:40.042Z,13.34
2022-12-29T09:56:42.974Z,13.27
2022-12-29T09:59:48.691Z,13.22
2022-12-29T10:02:55.712Z,13.42
2022-12-29T10:06:05.614Z,13.48
2022-12-29T10:09:17.460Z,13.51
2022-12-29T10:12:31.558Z,13.48
2022-12-29T10:15:44.231Z,13.48
2022-12-29T10:19:18.204Z,13.48
2022-12-29T10:22:34.483Z,13.43
2022-12-29T10:25:40.880Z,13.32
2022-12-29T10:28:47.670Z,13.32
2022-12-29T10:31:58.293Z,13.28
2022-12-29T10:35:05.508Z,13.28
2022-12-29T10:38:17.600Z,13.18
2022-12-29T10:41:25.527Z,13.27
2022-12-29T10:44:33.002Z,13.28
2022-12-29T10:47:43.857Z,13.33
2022-12-29T10:50:46.843Z,13.33
2022-12-29T10:53:53.543Z,13.29
2022-12-29T10:57:02.077Z,13.28
2022-12-29T11:00:13.951Z,13.14
2022-12-29T11:04:00.130Z,13.18
2022-12-29T11:07:09.506Z,13.17
2022-12-29T11:10:22.274Z,13.22
2022-12-29T11:13:33.470Z,13.22
2022-12-29T11:16:39.394Z,13.22
2022-12-29T11:19:42.067Z,13.21
2022-12-29T11:22:47.239Z,13.25
2022-12-29T11:26:08.756Z,13.30
2022-12-29T11:29:27.711Z,13.41
2022-12-29T11:32:31.295Z,13.55
2022-12-29T11:35:37.483Z,13.60
2022-12-29T11:38:44.437Z,13.62
2022-12-29T11:41:54.690Z,13.41
2022-12-29T11:44:57.460Z,13.57
2022-12-29T11:48:03.220Z,13.48
2022-12-29T11:51:06.281Z,13.53
2022-12-29T11:54:19.465Z,13.64
2022-12-29T11:57:25.934Z,13.74
2022-12-29T12:00:30.726Z,13.80
2022-12-29T12:03:37.415Z,13.82
2022-12-29T12:06:47.131Z,13.84
2022-12-29T12:09:58.995Z,13.84
2022-12-29T12:13:12.166Z,13.83
2022-12-29T12:16:19.239Z,13.80
2022-12-29T12:19:31.887Z,13.80
2022-12-29T12:22:39.295Z,13.74
2022-12-29T12:25:50.019Z,13.75
2022-12-29T12:28:57.774Z,13.75
2022-12-29T12:32:06.733Z,13.72
2022-12-29T12:35:18.184Z,13.71
2022-12-29T12:38:35.832Z,13.72
2022-12-29T12:41:51.267Z,13.67
2022-12-29T12:45:06.422Z,13.64
2022-12-29T12:48:27.144Z,13.57
2022-12-29T12:51:39.282Z,13.52
2022-12-29T12:54:59.856Z,13.44
2022-12-29T12:58:14.197Z,13.43
2022-12-29T13:01:41.380Z,13.43
2022-12-29T13:05:06.409Z,13.42
2022-12-29T13:08:30.098Z,13.38
2022-12-29T13:11:48.273Z,13.14
2022-12-29T13:15:04.396Z,13.18
2022-12-29T13:18:18.093Z,13.08
2022-12-29T13:21:34.090Z,13.05
2022-12-29T13:24:48.023Z,12.97
2022-12-29T13:27:57.912Z,12.91
2022-12-29T13:31:08.086Z,12.85
2022-12-29T13:34:23.526Z,12.77
2022-12-29T13:37:30.072Z,12.69
2022-12-29T13:40:36.228Z,12.76
2022-12-29T13:43:44.205Z,12.79
2022-12-29T13:46:49.833Z,12.77
2022-12-29T13:49:54.803Z,12.74
2022-12-29T13:53:04.012Z,12.87
2022-12-29T13:56:10.967Z,12.89
2022-12-29T13:59:21.342Z,12.91
2022-12-29T14:02:39.925Z,12.97
2022-12-29T14:05:47.727Z,13.04
2022-12-29T14:08:52.096Z,13.04
2022-12-29T14:11:55.209Z,13.04
2022-12-29T14:15:06.246Z,12.97
2022-12-29T14:18:18.820Z,12.83
2022-12-29T14:21:24.363Z,12.93
2022-12-29T14:24:42.392Z,12.81
2022-12-29T14:27:53.230Z,12.87
2022-12-29T14:30:57.321Z,12.87
2022-12-29T14:34:27.825Z,12.82
2022-12-29T14:37:32.538Z,12.81
2022-12-29T14:40:35.788Z,12.79
2022-12-29T14:43:39.082Z,12.70
2022-12-29T14:46:48.232Z,12.70
2022-12-29T14:49:53.497Z,12.65
2022-12-29T14:53:02.912Z,12.54
2022-12-29T14:56:06.814Z,12.43
2022-12-29T14:59:12.975Z,12.46
2022-12-29T15:02:20.934Z,12.39
2022-12-29T15:05:35.881Z,12.28
2022-12-29T15:08:41.371Z,12.20
2022-12-29T15:11:51.693Z,12.09
2022-12-29T15:14:56.681Z,11.98
2022-12-29T15:17:59.354Z,11.97
2022-12-29T15:21:05.899Z,11.91
2022-12-29T15:24:12.956Z,11.89
2022-12-29T15:27:18.707Z,11.78
2022-12-29T15:30:22.268Z,11.68
2022-12-29T15:33:28.240Z,11.72
2022-12-29T15:36:39.882Z,11.62
2022-12-29T15:39:42.912Z,11.60
2022-12-29T15:43:09.681Z,11.52
2022-12-29T15:46:13.225Z,11.50
2022-12-29T15:49:17.908Z,11.34
2022-12-29T15:52:23.500Z,11.38
2022-12-29T15:55:32.072Z,11.38
2022-12-29T15:58:45.539Z,11.43
2022-12-29T16:01:48.604Z,11.08
2022-12-29T16:05:16.681Z,11.34
2022-12-29T16:08:40.809Z,11.13
2022-12-29T16:11:47.028Z,11.03
2022-12-29T16:14:54.892Z,10.77
2022-12-29T16:17:58.013Z,10.67
2022-12-29T16:21:00.860Z,10.44
2022-12-29T16:24:10.912Z,10.44
2022-12-29T16:27:23.927Z,10.32
2022-12-29T16:30:33.864Z,10.27
2022-12-29T16:33:48.671Z,10.26
2022-12-29T16:36:57.042Z,10.28
2022-12-29T16:40:31.134Z,10.32
2022-12-29T16:43:36.133Z,10.40
2022-12-29T16:46:45.927Z,10.44
2022-12-29T16:49:55.541Z,10.52
2022-12-29T16:52:58.356Z,10.40
2022-12-29T16:56:06.130Z,10.43
2022-12-29T16:59:18.706Z,10.42
2022-12-29T17:02:24.450Z,10.30
2022-12-29T17:05:27.674Z,10.19
2022-12-29T17:08:30.408Z,10.20
2022-12-29T17:12:00.021Z,9.97
2022-12-29T17:15:10.934Z,10.29
2022-12-29T17:18:14.319Z,10.34
2022-12-29T17:21:17.175Z,10.33
2022-12-29T17:24:21.300Z,10.32
2022-12-29T17:27:29.752Z,10.28
2022-12-29T17:30:36.090Z,10.26
2022-12-29T17:33:42.746Z,10.24
2022-12-29T17:36:45.532Z,10.18
2022-12-29T17:39:48.346Z,10.16
2022-12-29T17:42:55.993Z,10.14
2022-12-29T17:45:59.991Z,10.16
2022-12-29T17:49:03.870Z,10.19
2022-12-29T17:52:06.747Z,10.24
2022-12-29T17:55:17.485Z,10.12
2022-12-29T17:58:23.368Z,10.30
2022-12-29T18:01:31.029Z,10.24
2022-12-29T18:04:36.678Z,10.39
2022-12-29T18:07:39.954Z,10.41
2022-12-29T18:10:43.561Z,10.43
2022-12-29T18:13:47.622Z,10.42
2022-12-29T18:16:50.432Z,10.46
2022-12-29T18:19:54.853Z,10.47
2022-12-29T18:22:58.825Z,10.43
2022-12-29T18:26:03.557Z,9.98
2022-12-29T18:29:07.862Z,10.38
2022-12-29T18:32:13.618Z,10.38
2022-12-29T18:35:20.431Z,10.38
2022-12-29T18:38:23.225Z,10.28
2022-12-29T18:41:29.161Z,10.46
2022-12-29T18:44:33.283Z,10.46
2022-12-29T18:47:35.990Z,10.47
2022-12-29T18:50:38.653Z,10.47
2022-12-29T18:53:41.379Z,10.46
2022-12-29T18:56:44.172Z,10.52
2022-12-29T18:59:48.281Z,10.54
2022-12-29T19:02:52.090Z,10.47
2022-12-29T19:05:54.828Z,10.23
2022-12-29T19:08:57.487Z,10.30
2022-12-29T19:12:00.210Z,10.37
2022-12-29T19:15:07.240Z,10.28
2022-12-29T19:18:43.995Z,10.17
2022-12-29T19:21:36.489Z,10.10
2022-12-29T19:24:39.249Z,10.08
2022-12-29T19:27:42.117Z,10.08
2022-12-29T19:30:51.691Z,10.02
2022-12-29T19:33:55.673Z,9.99
2022-12-29T19:36:58.387Z,9.99
2022-12-29T19:40:01.161Z,9.71
2022-12-29T19:43:03.999Z,9.65
2022-12-29T19:46:13.117Z,10.02
2022-12-29T19:49:15.811Z,9.90
2022-12-29T19:52:18.527Z,9.93
2022-12-29T19:55:21.448Z,9.88
2022-12-29T19:58:24.221Z,9.83
2022-12-29T20:01:28.768Z,9.90
2022-12-29T20:04:32.050Z,9.80
2022-12-29T20:07:34.813Z,9.99
2022-12-29T20:10:37.474Z,9.94
2022-12-29T20:13:40.847Z,9.92
2022-12-29T20:17:09.656Z,9.90
2022-12-29T20:20:09.087Z,9.92
2022-12-29T20:23:12.297Z,9.94
2022-12-29T20:26:16.989Z,9.95
2022-12-29T20:29:19.810Z,10.02
2022-12-29T20:32:25.356Z,9.99
2022-12-29T20:35:28.485Z,9.78
2022-12-29T20:38:31.237Z,9.87
2022-12-29T20:41:34.463Z,9.97
2022-12-29T20:44:38.185Z,9.83
2022-12-29T20:47:43.117Z,9.81
2022-12-29T20:50:45.809Z,9.90
2022-12-29T20:53:48.832Z,9.88
2022-12-29T20:56:52.399Z,9.87
2022-12-29T20:59:55.040Z,9.89
2022-12-29T21:02:59.610Z,9.90
2022-12-29T21:06:02.916Z,9.94
2022-12-29T21:09:06.598Z,9.95
2022-12-29T21:12:09.478Z,10.00
2022-12-29T21:15:14.400Z,10.04
2022-12-29T21:18:18.606Z,10.06
2022-12-29T21:21:23.523Z,10.12
2022-12-29T21:24:26.632Z,10.10
2022-12-29T21:27:29.299Z,9.98
2022-12-29T21:30:32.102Z,9.98
2022-12-29T21:33:37.524Z,9.94
2022-12-29T21:36:40.458Z,9.95
2022-12-29T21:39:43.543Z,9.94
2022-12-29T21:42:46.266Z,10.01
2022-12-29T21:45:50.881Z,9.96
2022-12-29T21:48:55.032Z,9.88
2022-12-29T21:51:57.791Z,9.74
2022-12-29T21:55:05.146Z,9.93
2022-12-29T21:58:25.452Z,9.90
2022-12-29T22:01:48.336Z,9.93
2022-12-29T22:05:09.860Z,9.92
2022-12-29T22:08:30.123Z,9.94
2022-12-29T22:11:50.301Z,9.93
2022-12-29T22:14:52.947Z,9.72
2022-12-29T22:17:56.950Z,10.05
2022-12-29T22:21:04.734Z,10.03
2022-12-29T22:24:08.656Z,10.05
2022-12-29T22:27:11.369Z,9.93
2022-12-29T22:30:15.076Z,10.08
2022-12-29T22:33:17.864Z,10.13
2022-12-29T22:36:22.006Z,9.85
2022-12-29T22:39:25.136Z,10.13
2022-12-29T22:42:27.850Z,10.13
2022-12-29T22:45:30.885Z,10.13
2022-12-29T22:48:34.061Z,9.97
2022-12-29T22:51:38.168Z,10.14
2022-12-29T22:54:40.897Z,10.13
2022-12-29T22:57:43.585Z,10.14
2022-12-29T23:00:46.842Z,10.10
2022-12-29T23:03:50.168Z,9.98
2022-12-29T23:06:54.336Z,10.06
2022-12-29T23:09:57.075Z,10.07
2022-12-29T23:12:59.765Z,10.09
2022-12-29T23:16:03.380Z,9.92
2022-12-29T23:19:06.876Z,10.04
2022-12-29T23:22:10.920Z,9.97
2022-12-29T23:25:13.689Z,9.86
2022-12-29T23:28:16.640Z,9.79
2022-12-29T23:31:19.634Z,9.81
2022-12-29T23:34:22.319Z,9.79
2022-12-29T23:37:26.340Z,9.72
2022-12-29T23:40:29.058Z,9.67
2022-12-29T23:43:31.868Z,9.62
2022-12-29T23:46:35.612Z,9.61
2022-12-29T23:49:38.520Z,9.58
2022-12-29T23:52:42.525Z,9.49
2022-12-29T23:55:45.598Z,9.39
2022-12-29T23:58:48.410Z,9.44
